sensor_id;sensor_type;location;lat;lon;timestamp;temperature;humidity
49731;DHT22;35622;52.008;5.426;2022-09-03T00:00:15;19.80;42.20
49731;DHT22;35622;52.008;5.426;2022-09-03T00:13:13;19.60;42.50
49731;DHT22;35622;52.008;5.426;2022-09-03T00:15:40;19.60;42.70
49731;DHT22;35622;52.008;5.426;2022-09-03T00:18:09;19.50;42.90
49731;DHT22;35622;52.008;5.426;2022-09-03T00:20:44;19.50;42.90
49731;DHT22;35622;52.008;5.426;2022-09-03T00:23:19;19.50;43.10
49731;DHT22;35622;52.008;5.426;2022-09-03T00:25:58;19.40;43.30
49731;DHT22;35622;52.008;5.426;2022-09-03T00:28:36;19.40;43.50
49731;DHT22;35622;52.008;5.426;2022-09-03T00:31:17;19.30;43.40
49731;DHT22;35622;52.008;5.426;2022-09-03T00:33:45;19.20;43.80
49731;DHT22;35622;52.008;5.426;2022-09-03T00:36:29;19.20;44.00
49731;DHT22;35622;52.008;5.426;2022-09-03T00:38:57;19.10;44.10
49731;DHT22;35622;52.008;5.426;2022-09-03T00:41:33;19.10;44.10
49731;DHT22;35622;52.008;5.426;2022-09-03T00:46:54;19.10;43.90
49731;DHT22;35622;52.008;5.426;2022-09-03T00:49:41;19.10;44.00
49731;DHT22;35622;52.008;5.426;2022-09-03T00:55:12;19.10;44.10
49731;DHT22;35622;52.008;5.426;2022-09-03T01:00:30;18.90;44.40
49731;DHT22;35622;52.008;5.426;2022-09-03T01:03:13;18.90;44.40
49731;DHT22;35622;52.008;5.426;2022-09-03T01:11:42;18.90;44.60
49731;DHT22;35622;52.008;5.426;2022-09-03T01:17:29;18.80;44.80
49731;DHT22;35622;52.008;5.426;2022-09-03T01:20:05;18.90;44.80
49731;DHT22;35622;52.008;5.426;2022-09-03T01:23:01;18.90;44.90
49731;DHT22;35622;52.008;5.426;2022-09-03T01:28:44;19.00;44.90
49731;DHT22;35622;52.008;5.426;2022-09-03T01:34:26;19.20;44.60
49731;DHT22;35622;52.008;5.426;2022-09-03T01:37:00;19.30;43.70
49731;DHT22;35622;52.008;5.426;2022-09-03T01:39:44;19.40;43.70
49731;DHT22;35622;52.008;5.426;2022-09-03T01:45:41;19.50;43.60
49731;DHT22;35622;52.008;5.426;2022-09-03T01:48:31;19.50;43.10
49731;DHT22;35622;52.008;5.426;2022-09-03T01:56:50;19.70;43.10
49731;DHT22;35622;52.008;5.426;2022-09-03T02:02:21;19.60;42.70
49731;DHT22;35622;52.008;5.426;2022-09-03T02:04:59;19.60;43.00
49731;DHT22;35622;52.008;5.426;2022-09-03T02:07:32;19.60;43.20
49731;DHT22;35622;52.008;5.426;2022-09-03T02:09:59;19.40;42.10
49731;DHT22;35622;52.008;5.426;2022-09-03T02:12:29;19.40;42.30
49731;DHT22;35622;52.008;5.426;2022-09-03T02:15:01;19.60;42.40
49731;DHT22;35622;52.008;5.426;2022-09-03T02:17:30;19.70;42.20
49731;DHT22;35622;52.008;5.426;2022-09-03T02:19:56;19.80;42.30
49731;DHT22;35622;52.008;5.426;2022-09-03T02:22:22;19.90;42.00
49731;DHT22;35622;52.008;5.426;2022-09-03T02:24:48;19.70;42.10
49731;DHT22;35622;52.008;5.426;2022-09-03T02:27:14;19.80;42.10
49731;DHT22;35622;52.008;5.426;2022-09-03T02:29:40;19.80;41.80
49731;DHT22;35622;52.008;5.426;2022-09-03T02:32:06;19.80;42.00
49731;DHT22;35622;52.008;5.426;2022-09-03T02:34:32;19.80;42.20
49731;DHT22;35622;52.008;5.426;2022-09-03T02:36:57;19.80;41.60
49731;DHT22;35622;52.008;5.426;2022-09-03T02:39:23;19.70;41.70
49731;DHT22;35622;52.008;5.426;2022-09-03T02:41:53;19.70;42.10
49731;DHT22;35622;52.008;5.426;2022-09-03T02:44:21;19.70;41.60
49731;DHT22;35622;52.008;5.426;2022-09-03T02:46:59;19.80;41.60
49731;DHT22;35622;52.008;5.426;2022-09-03T02:49:25;19.90;41.70
49731;DHT22;35622;52.008;5.426;2022-09-03T02:51:56;19.90;41.90
49731;DHT22;35622;52.008;5.426;2022-09-03T02:54:21;19.80;41.90
49731;DHT22;35622;52.008;5.426;2022-09-03T02:56:47;19.80;42.00
49731;DHT22;35622;52.008;5.426;2022-09-03T02:59:14;19.80;42.10
49731;DHT22;35622;52.008;5.426;2022-09-03T03:01:39;19.80;42.40
49731;DHT22;35622;52.008;5.426;2022-09-03T03:04:05;19.80;42.60
49731;DHT22;35622;52.008;5.426;2022-09-03T03:06:30;19.70;42.60
49731;DHT22;35622;52.008;5.426;2022-09-03T03:08:57;19.60;42.20
49731;DHT22;35622;52.008;5.426;2022-09-03T03:11:23;19.60;42.80
49731;DHT22;35622;52.008;5.426;2022-09-03T03:13:51;19.60;42.80
49731;DHT22;35622;52.008;5.426;2022-09-03T03:16:17;19.60;42.90
49731;DHT22;35622;52.008;5.426;2022-09-03T03:18:42;19.70;42.90
49731;DHT22;35622;52.008;5.426;2022-09-03T03:21:15;19.70;42.80
49731;DHT22;35622;52.008;5.426;2022-09-03T03:23:41;19.70;42.70
49731;DHT22;35622;52.008;5.426;2022-09-03T03:26:10;19.80;42.80
49731;DHT22;35622;52.008;5.426;2022-09-03T03:28:36;19.70;42.90
49731;DHT22;35622;52.008;5.426;2022-09-03T03:45:04;19.70;42.90
49731;DHT22;35622;52.008;5.426;2022-09-03T03:47:29;19.80;42.50
49731;DHT22;35622;52.008;5.426;2022-09-03T03:49:56;19.80;42.50
49731;DHT22;35622;52.008;5.426;2022-09-03T03:52:22;19.80;42.70
49731;DHT22;35622;52.008;5.426;2022-09-03T03:54:48;19.70;42.50
49731;DHT22;35622;52.008;5.426;2022-09-03T03:57:15;19.80;42.60
49731;DHT22;35622;52.008;5.426;2022-09-03T03:59:40;19.80;42.50
49731;DHT22;35622;52.008;5.426;2022-09-03T04:02:06;19.80;42.40
49731;DHT22;35622;52.008;5.426;2022-09-03T04:04:31;19.80;42.60
49731;DHT22;35622;52.008;5.426;2022-09-03T04:06:57;19.70;42.70
49731;DHT22;35622;52.008;5.426;2022-09-03T04:09:23;19.70;42.50
49731;DHT22;35622;52.008;5.426;2022-09-03T04:11:48;19.70;42.60
49731;DHT22;35622;52.008;5.426;2022-09-03T04:14:15;19.70;42.60
49731;DHT22;35622;52.008;5.426;2022-09-03T04:16:42;19.70;42.70
49731;DHT22;35622;52.008;5.426;2022-09-03T04:19:11;19.60;43.00
49731;DHT22;35622;52.008;5.426;2022-09-03T04:21:37;19.60;43.10
49731;DHT22;35622;52.008;5.426;2022-09-03T04:24:04;19.60;42.80
49731;DHT22;35622;52.008;5.426;2022-09-03T04:26:31;19.50;42.30
49731;DHT22;35622;52.008;5.426;2022-09-03T04:29:07;19.40;42.70
49731;DHT22;35622;52.008;5.426;2022-09-03T04:31:34;19.50;42.80
49731;DHT22;35622;52.008;5.426;2022-09-03T04:34:00;19.50;42.80
49731;DHT22;35622;52.008;5.426;2022-09-03T04:36:28;19.40;42.30
49731;DHT22;35622;52.008;5.426;2022-09-03T04:38:55;19.40;43.00
49731;DHT22;35622;52.008;5.426;2022-09-03T04:41:24;19.50;43.30
49731;DHT22;35622;52.008;5.426;2022-09-03T04:43:52;19.40;42.80
49731;DHT22;35622;52.008;5.426;2022-09-03T04:46:18;19.50;42.60
49731;DHT22;35622;52.008;5.426;2022-09-03T04:48:47;19.60;42.70
49731;DHT22;35622;52.008;5.426;2022-09-03T04:51:17;19.60;42.60
49731;DHT22;35622;52.008;5.426;2022-09-03T04:53:44;19.60;42.60
49731;DHT22;35622;52.008;5.426;2022-09-03T04:56:14;19.60;43.50
49731;DHT22;35622;52.008;5.426;2022-09-03T04:58:40;19.50;42.90
49731;DHT22;35622;52.008;5.426;2022-09-03T05:01:15;19.60;43.00
49731;DHT22;35622;52.008;5.426;2022-09-03T05:03:41;19.50;43.10
49731;DHT22;35622;52.008;5.426;2022-09-03T05:06:06;19.50;43.10
49731;DHT22;35622;52.008;5.426;2022-09-03T05:08:33;19.50;43.20
49731;DHT22;35622;52.008;5.426;2022-09-03T05:11:02;19.40;43.20
49731;DHT22;35622;52.008;5.426;2022-09-03T05:13:28;19.50;43.20
49731;DHT22;35622;52.008;5.426;2022-09-03T05:16:05;19.50;43.20
49731;DHT22;35622;52.008;5.426;2022-09-03T05:18:31;19.60;43.10
49731;DHT22;35622;52.008;5.426;2022-09-03T05:21:05;19.60;42.90
49731;DHT22;35622;52.008;5.426;2022-09-03T05:23:34;19.70;42.80
49731;DHT22;35622;52.008;5.426;2022-09-03T05:26:02;19.70;43.00
49731;DHT22;35622;52.008;5.426;2022-09-03T05:28:29;19.80;43.10
49731;DHT22;35622;52.008;5.426;2022-09-03T05:33:28;19.90;42.90
49731;DHT22;35622;52.008;5.426;2022-09-03T05:36:01;20.00;42.80
49731;DHT22;35622;52.008;5.426;2022-09-03T05:38:28;20.20;42.60
49731;DHT22;35622;52.008;5.426;2022-09-03T05:40:56;20.30;42.30
49731;DHT22;35622;52.008;5.426;2022-09-03T05:43:22;20.40;42.10
49731;DHT22;35622;52.008;5.426;2022-09-03T05:45:47;20.50;41.80
49731;DHT22;35622;52.008;5.426;2022-09-03T05:48:13;20.60;41.60
49731;DHT22;35622;52.008;5.426;2022-09-03T05:50:39;20.70;41.50
49731;DHT22;35622;52.008;5.426;2022-09-03T05:53:05;20.80;42.20
49731;DHT22;35622;52.008;5.426;2022-09-03T05:55:31;20.80;41.20
49731;DHT22;35622;52.008;5.426;2022-09-03T05:57:56;21.00;41.00
49731;DHT22;35622;52.008;5.426;2022-09-03T06:00:22;21.20;40.70
49731;DHT22;35622;52.008;5.426;2022-09-03T06:02:54;21.50;40.60
49731;DHT22;35622;52.008;5.426;2022-09-03T06:05:19;21.70;40.10
49731;DHT22;35622;52.008;5.426;2022-09-03T06:07:45;21.80;39.70
49731;DHT22;35622;52.008;5.426;2022-09-03T06:10:17;22.10;39.60
49731;DHT22;35622;52.008;5.426;2022-09-03T06:12:43;22.10;38.20
49731;DHT22;35622;52.008;5.426;2022-09-03T06:15:10;22.40;38.30
49731;DHT22;35622;52.008;5.426;2022-09-03T06:17:37;23.00;38.50
49731;DHT22;35622;52.008;5.426;2022-09-03T06:20:03;23.40;37.10
49731;DHT22;35622;52.008;5.426;2022-09-03T06:22:28;23.60;36.70
49731;DHT22;35622;52.008;5.426;2022-09-03T06:24:55;23.80;37.20
49731;DHT22;35622;52.008;5.426;2022-09-03T06:27:21;23.90;34.60
49731;DHT22;35622;52.008;5.426;2022-09-03T06:29:46;23.90;33.50
49731;DHT22;35622;52.008;5.426;2022-09-03T06:32:12;23.90;33.80
49731;DHT22;35622;52.008;5.426;2022-09-03T06:34:38;23.80;33.30
49731;DHT22;35622;52.008;5.426;2022-09-03T06:37:03;24.40;34.10
49731;DHT22;35622;52.008;5.426;2022-09-03T06:39:29;25.90;32.60
49731;DHT22;35622;52.008;5.426;2022-09-03T06:41:55;27.80;30.60
49731;DHT22;35622;52.008;5.426;2022-09-03T06:44:20;29.70;28.60
49731;DHT22;35622;52.008;5.426;2022-09-03T06:46:46;31.40;26.70
49731;DHT22;35622;52.008;5.426;2022-09-03T06:49:13;32.80;24.00
49731;DHT22;35622;52.008;5.426;2022-09-03T06:51:38;34.10;22.60
49731;DHT22;35622;52.008;5.426;2022-09-03T06:54:06;35.10;20.60
49731;DHT22;35622;52.008;5.426;2022-09-03T06:56:34;36.10;19.80
49731;DHT22;35622;52.008;5.426;2022-09-03T06:59:03;37.20;19.30
49731;DHT22;35622;52.008;5.426;2022-09-03T07:01:31;38.20;17.00
49731;DHT22;35622;52.008;5.426;2022-09-03T07:04:00;37.20;17.40
49731;DHT22;35622;52.008;5.426;2022-09-03T07:06:28;37.50;17.00
49731;DHT22;35622;52.008;5.426;2022-09-03T07:08:54;37.70;16.60
49731;DHT22;35622;52.008;5.426;2022-09-03T07:11:25;37.20;16.00
49731;DHT22;35622;52.008;5.426;2022-09-03T07:13:52;36.90;17.40
49731;DHT22;35622;52.008;5.426;2022-09-03T07:16:27;38.20;16.90
49731;DHT22;35622;52.008;5.426;2022-09-03T07:18:53;38.10;15.80
49731;DHT22;35622;52.008;5.426;2022-09-03T07:21:21;39.20;16.40
49731;DHT22;35622;52.008;5.426;2022-09-03T07:23:48;40.10;15.40
49731;DHT22;35622;52.008;5.426;2022-09-03T07:26:26;41.40;15.20
49731;DHT22;35622;52.008;5.426;2022-09-03T07:28:53;42.20;13.90
49731;DHT22;35622;52.008;5.426;2022-09-03T07:31:25;42.70;13.70
49731;DHT22;35622;52.008;5.426;2022-09-03T07:33:58;43.10;12.70
49731;DHT22;35622;52.008;5.426;2022-09-03T07:36:26;43.10;13.10
49731;DHT22;35622;52.008;5.426;2022-09-03T07:38:55;44.00;12.90
49731;DHT22;35622;52.008;5.426;2022-09-03T07:41:21;44.90;12.50
49731;DHT22;35622;52.008;5.426;2022-09-03T07:43:48;44.30;11.40
49731;DHT22;35622;52.008;5.426;2022-09-03T07:46:21;44.70;12.30
49731;DHT22;35622;52.008;5.426;2022-09-03T07:48:52;45.40;11.70
49731;DHT22;35622;52.008;5.426;2022-09-03T07:51:20;45.40;11.60
49731;DHT22;35622;52.008;5.426;2022-09-03T07:53:47;44.10;11.40
49731;DHT22;35622;52.008;5.426;2022-09-03T07:56:14;41.50;13.30
49731;DHT22;35622;52.008;5.426;2022-09-03T07:58:40;41.10;13.60
49731;DHT22;35622;52.008;5.426;2022-09-03T08:01:27;41.20;13.20
49731;DHT22;35622;52.008;5.426;2022-09-03T08:03:59;40.30;14.20
49731;DHT22;35622;52.008;5.426;2022-09-03T08:06:26;41.80;13.40
49731;DHT22;35622;52.008;5.426;2022-09-03T08:08:57;42.70;13.10
49731;DHT22;35622;52.008;5.426;2022-09-03T08:11:24;42.30;12.70
49731;DHT22;35622;52.008;5.426;2022-09-03T08:14:01;43.20;12.80
49731;DHT22;35622;52.008;5.426;2022-09-03T08:16:32;44.20;12.40
49731;DHT22;35622;52.008;5.426;2022-09-03T08:18:58;45.50;12.20
49731;DHT22;35622;52.008;5.426;2022-09-03T08:21:25;46.70;11.40
49731;DHT22;35622;52.008;5.426;2022-09-03T08:23:53;47.10;10.40
49731;DHT22;35622;52.008;5.426;2022-09-03T08:26:20;45.50;10.50
49731;DHT22;35622;52.008;5.426;2022-09-03T08:28:46;46.10;11.10
49731;DHT22;35622;52.008;5.426;2022-09-03T08:31:19;47.00;11.30
49731;DHT22;35622;52.008;5.426;2022-09-03T08:33:51;47.10;10.50
49731;DHT22;35622;52.008;5.426;2022-09-03T08:36:19;46.20;10.70
49731;DHT22;35622;52.008;5.426;2022-09-03T08:38:47;45.70;10.70
49731;DHT22;35622;52.008;5.426;2022-09-03T08:41:22;46.30;10.70
49731;DHT22;35622;52.008;5.426;2022-09-03T08:44:16;46.80;10.90
49731;DHT22;35622;52.008;5.426;2022-09-03T08:51:57;48.10;10.20
49731;DHT22;35622;52.008;5.426;2022-09-03T08:54:29;48.50;10.30
49731;DHT22;35622;52.008;5.426;2022-09-03T08:56:59;49.50;9.60
49731;DHT22;35622;52.008;5.426;2022-09-03T08:59:25;49.40;9.80
49731;DHT22;35622;52.008;5.426;2022-09-03T09:07:36;51.40;8.90
49731;DHT22;35622;52.008;5.426;2022-09-03T09:10:18;50.40;8.90
49731;DHT22;35622;52.008;5.426;2022-09-03T09:15:31;49.80;9.00
49731;DHT22;35622;52.008;5.426;2022-09-03T09:20:49;49.70;8.20
49731;DHT22;35622;52.008;5.426;2022-09-03T09:23:35;50.10;9.70
49731;DHT22;35622;52.008;5.426;2022-09-03T09:26:06;51.70;9.20
49731;DHT22;35622;52.008;5.426;2022-09-03T09:28:37;53.10;8.70
49731;DHT22;35622;52.008;5.426;2022-09-03T09:31:05;53.20;7.60
49731;DHT22;35622;52.008;5.426;2022-09-03T09:33:33;53.40;8.20
49731;DHT22;35622;52.008;5.426;2022-09-03T09:36:04;54.10;7.90
49731;DHT22;35622;52.008;5.426;2022-09-03T09:38:34;53.60;7.80
49731;DHT22;35622;52.008;5.426;2022-09-03T09:41:15;54.40;7.80
49731;DHT22;35622;52.008;5.426;2022-09-03T09:43:41;54.50;7.50
49731;DHT22;35622;52.008;5.426;2022-09-03T09:46:37;55.30;7.50
49731;DHT22;35622;52.008;5.426;2022-09-03T09:49:30;55.60;7.10
49731;DHT22;35622;52.008;5.426;2022-09-03T09:52:11;55.30;6.70
49731;DHT22;35622;52.008;5.426;2022-09-03T09:54:38;55.30;6.90
49731;DHT22;35622;52.008;5.426;2022-09-03T09:57:07;54.30;7.50
49731;DHT22;35622;52.008;5.426;2022-09-03T09:59:38;54.10;7.80
49731;DHT22;35622;52.008;5.426;2022-09-03T10:02:13;54.00;7.60
49731;DHT22;35622;52.008;5.426;2022-09-03T10:04:40;53.30;6.80
49731;DHT22;35622;52.008;5.426;2022-09-03T10:07:29;51.20;7.20
49731;DHT22;35622;52.008;5.426;2022-09-03T10:15:49;48.60;9.50
49731;DHT22;35622;52.008;5.426;2022-09-03T10:18:37;49.30;9.20
49731;DHT22;35622;52.008;5.426;2022-09-03T10:21:18;50.00;8.80
49731;DHT22;35622;52.008;5.426;2022-09-03T10:24:10;50.00;9.10
49731;DHT22;35622;52.008;5.426;2022-09-03T10:26:42;50.40;9.20
49731;DHT22;35622;52.008;5.426;2022-09-03T10:29:14;50.00;8.50
49731;DHT22;35622;52.008;5.426;2022-09-03T10:34:24;48.70;9.40
49731;DHT22;35622;52.008;5.426;2022-09-03T10:36:58;49.70;9.70
49731;DHT22;35622;52.008;5.426;2022-09-03T10:39:51;48.70;9.40
49731;DHT22;35622;52.008;5.426;2022-09-03T10:42:40;49.50;8.70
49731;DHT22;35622;52.008;5.426;2022-09-03T10:45:18;48.70;9.00
49731;DHT22;35622;52.008;5.426;2022-09-03T10:50:51;50.10;8.90
49731;DHT22;35622;52.008;5.426;2022-09-03T10:53:30;50.80;8.90
49731;DHT22;35622;52.008;5.426;2022-09-03T10:58:40;49.40;9.20
49731;DHT22;35622;52.008;5.426;2022-09-03T11:04:16;48.60;9.50
49731;DHT22;35622;52.008;5.426;2022-09-03T11:06:53;49.70;9.30
49731;DHT22;35622;52.008;5.426;2022-09-03T11:12:12;49.70;9.40
49731;DHT22;35622;52.008;5.426;2022-09-03T11:14:45;49.20;9.10
49731;DHT22;35622;52.008;5.426;2022-09-03T11:17:21;48.00;9.80
49731;DHT22;35622;52.008;5.426;2022-09-03T11:19:58;47.40;9.60
49731;DHT22;35622;52.008;5.426;2022-09-03T11:22:28;48.30;9.80
49731;DHT22;35622;52.008;5.426;2022-09-03T11:24:58;48.80;9.30
49731;DHT22;35622;52.008;5.426;2022-09-03T11:30:34;48.30;9.90
49731;DHT22;35622;52.008;5.426;2022-09-03T11:33:08;47.60;9.90
49731;DHT22;35622;52.008;5.426;2022-09-03T11:38:04;45.30;11.10
49731;DHT22;35622;52.008;5.426;2022-09-03T11:40:35;44.50;11.30
49731;DHT22;35622;52.008;5.426;2022-09-03T11:43:30;44.40;11.30
49731;DHT22;35622;52.008;5.426;2022-09-03T11:49:12;45.10;11.80
49731;DHT22;35622;52.008;5.426;2022-09-03T11:51:39;46.20;11.50
49731;DHT22;35622;52.008;5.426;2022-09-03T11:56:38;48.00;10.70
49731;DHT22;35622;52.008;5.426;2022-09-03T12:02:03;44.50;12.00
49731;DHT22;35622;52.008;5.426;2022-09-03T12:04:38;43.50;12.80
49731;DHT22;35622;52.008;5.426;2022-09-03T12:07:19;44.10;12.60
49731;DHT22;35622;52.008;5.426;2022-09-03T12:10:11;44.60;12.00
49731;DHT22;35622;52.008;5.426;2022-09-03T12:12:55;43.90;12.10
49731;DHT22;35622;52.008;5.426;2022-09-03T12:15:48;41.70;12.70
49731;DHT22;35622;52.008;5.426;2022-09-03T12:18:26;40.70;14.20
49731;DHT22;35622;52.008;5.426;2022-09-03T12:25:56;39.00;15.00
49731;DHT22;35622;52.008;5.426;2022-09-03T12:28:24;39.30;15.90
49731;DHT22;35622;52.008;5.426;2022-09-03T12:30:51;37.90;16.70
49731;DHT22;35622;52.008;5.426;2022-09-03T12:33:19;36.60;17.00
49731;DHT22;35622;52.008;5.426;2022-09-03T12:35:59;35.90;18.00
49731;DHT22;35622;52.008;5.426;2022-09-03T12:38:26;35.70;18.10
49731;DHT22;35622;52.008;5.426;2022-09-03T12:40:53;35.50;18.80
49731;DHT22;35622;52.008;5.426;2022-09-03T12:43:19;35.00;19.60
49731;DHT22;35622;52.008;5.426;2022-09-03T12:45:47;34.30;20.10
49731;DHT22;35622;52.008;5.426;2022-09-03T12:48:18;34.40;20.30
49731;DHT22;35622;52.008;5.426;2022-09-03T12:50:44;33.70;21.10
49731;DHT22;35622;52.008;5.426;2022-09-03T12:53:14;33.70;21.40
49731;DHT22;35622;52.008;5.426;2022-09-03T12:55:49;33.80;21.70
49731;DHT22;35622;52.008;5.426;2022-09-03T12:58:24;33.50;21.30
49731;DHT22;35622;52.008;5.426;2022-09-03T13:03:31;32.90;21.90
49731;DHT22;35622;52.008;5.426;2022-09-03T13:06:01;32.40;22.70
49731;DHT22;35622;52.008;5.426;2022-09-03T13:08:38;32.00;22.80
49731;DHT22;35622;52.008;5.426;2022-09-03T13:11:06;31.60;23.50
49731;DHT22;35622;52.008;5.426;2022-09-03T13:13:34;31.70;23.90
49731;DHT22;35622;52.008;5.426;2022-09-03T13:21:53;31.70;23.30
49731;DHT22;35622;52.008;5.426;2022-09-03T13:24:36;31.80;23.80
49731;DHT22;35622;52.008;5.426;2022-09-03T13:30:36;31.30;24.00
49731;DHT22;35622;52.008;5.426;2022-09-03T13:33:22;31.40;24.10
49731;DHT22;35622;52.008;5.426;2022-09-03T13:36:09;31.40;23.50
49731;DHT22;35622;52.008;5.426;2022-09-03T13:46:34;31.30;23.60
49731;DHT22;35622;52.008;5.426;2022-09-03T13:54:59;31.40;23.40
49731;DHT22;35622;52.008;5.426;2022-09-03T14:00:39;31.20;24.00
49731;DHT22;35622;52.008;5.426;2022-09-03T14:03:11;31.20;24.40
49731;DHT22;35622;52.008;5.426;2022-09-03T14:16:30;32.20;23.40
49731;DHT22;35622;52.008;5.426;2022-09-03T14:19:10;32.30;23.30
49731;DHT22;35622;52.008;5.426;2022-09-03T14:21:53;32.00;22.90
49731;DHT22;35622;52.008;5.426;2022-09-03T14:26:58;31.60;22.90
49731;DHT22;35622;52.008;5.426;2022-09-03T14:29:33;31.80;22.70
49731;DHT22;35622;52.008;5.426;2022-09-03T14:32:23;31.80;22.50
49731;DHT22;35622;52.008;5.426;2022-09-03T14:40:18;32.00;22.80
49731;DHT22;35622;52.008;5.426;2022-09-03T14:42:59;32.10;22.90
49731;DHT22;35622;52.008;5.426;2022-09-03T14:45:52;32.10;22.90
49731;DHT22;35622;52.008;5.426;2022-09-03T14:51:14;31.90;22.60
49731;DHT22;35622;52.008;5.426;2022-09-03T14:54:05;32.20;22.90
49731;DHT22;35622;52.008;5.426;2022-09-03T14:56:53;32.10;22.30
49731;DHT22;35622;52.008;5.426;2022-09-03T15:08:08;31.70;22.70
49731;DHT22;35622;52.008;5.426;2022-09-03T15:10:45;31.60;22.80
49731;DHT22;35622;52.008;5.426;2022-09-03T15:13:24;31.60;23.10
49731;DHT22;35622;52.008;5.426;2022-09-03T15:36:50;31.20;22.90
49731;DHT22;35622;52.008;5.426;2022-09-03T15:39:34;31.20;22.50
49731;DHT22;35622;52.008;5.426;2022-09-03T15:42:06;31.30;22.50
49731;DHT22;35622;52.008;5.426;2022-09-03T15:44:48;31.20;22.50
49731;DHT22;35622;52.008;5.426;2022-09-03T15:47:37;31.20;22.80
49731;DHT22;35622;52.008;5.426;2022-09-03T15:56:06;30.70;22.20
49731;DHT22;35622;52.008;5.426;2022-09-03T15:58:35;30.90;22.50
49731;DHT22;35622;52.008;5.426;2022-09-03T16:01:09;31.00;23.00
49731;DHT22;35622;52.008;5.426;2022-09-03T16:06:15;31.20;24.00
49731;DHT22;35622;52.008;5.426;2022-09-03T16:08:49;30.90;23.30
49731;DHT22;35622;52.008;5.426;2022-09-03T16:17:27;30.50;23.60
49731;DHT22;35622;52.008;5.426;2022-09-03T16:20:16;30.10;23.30
49731;DHT22;35622;52.008;5.426;2022-09-03T16:25:51;30.10;24.00
49731;DHT22;35622;52.008;5.426;2022-09-03T16:31:42;29.70;24.00
49731;DHT22;35622;52.008;5.426;2022-09-03T16:40:09;30.00;23.70
49731;DHT22;35622;52.008;5.426;2022-09-03T16:50:43;30.00;25.20
49731;DHT22;35622;52.008;5.426;2022-09-03T16:57:45;29.70;24.60
49731;DHT22;35622;52.008;5.426;2022-09-03T17:00:07;29.70;24.90
49731;DHT22;35622;52.008;5.426;2022-09-03T17:19:46;29.10;25.90
49731;DHT22;35622;52.008;5.426;2022-09-03T17:32:38;28.80;28.00
49731;DHT22;35622;52.008;5.426;2022-09-03T17:41:04;28.50;29.30
49731;DHT22;35622;52.008;5.426;2022-09-03T17:43:42;28.40;29.70
49731;DHT22;35622;52.008;5.426;2022-09-03T17:48:49;28.20;30.40
49731;DHT22;35622;52.008;5.426;2022-09-03T18:10:21;27.30;33.20
49731;DHT22;35622;52.008;5.426;2022-09-03T18:15:59;27.10;33.70
49731;DHT22;35622;52.008;5.426;2022-09-03T18:18:28;26.90;33.50
49731;DHT22;35622;52.008;5.426;2022-09-03T18:20:57;26.80;33.80
49731;DHT22;35622;52.008;5.426;2022-09-03T18:23:51;26.70;33.90
49731;DHT22;35622;52.008;5.426;2022-09-03T18:26:48;26.60;34.00
49731;DHT22;35622;52.008;5.426;2022-09-03T18:29:44;26.40;34.00
49731;DHT22;35622;52.008;5.426;2022-09-03T18:32:30;26.30;34.30
49731;DHT22;35622;52.008;5.426;2022-09-03T18:35:14;26.10;34.70
49731;DHT22;35622;52.008;5.426;2022-09-03T18:38:02;26.10;35.10
49731;DHT22;35622;52.008;5.426;2022-09-03T18:40:54;25.80;35.10
49731;DHT22;35622;52.008;5.426;2022-09-03T18:44:32;25.70;35.60
49731;DHT22;35622;52.008;5.426;2022-09-03T18:47:07;25.60;35.70
49731;DHT22;35622;52.008;5.426;2022-09-03T18:50:18;25.60;36.30
49731;DHT22;35622;52.008;5.426;2022-09-03T18:53:13;25.40;36.20
49731;DHT22;35622;52.008;5.426;2022-09-03T18:56:12;25.20;36.30
49731;DHT22;35622;52.008;5.426;2022-09-03T18:59:31;25.10;36.70
49731;DHT22;35622;52.008;5.426;2022-09-03T19:11:28;24.70;37.50
49731;DHT22;35622;52.008;5.426;2022-09-03T19:15:16;24.50;37.70
49731;DHT22;35622;52.008;5.426;2022-09-03T19:21:20;24.40;39.00
49731;DHT22;35622;52.008;5.426;2022-09-03T19:24:06;24.30;39.00
49731;DHT22;35622;52.008;5.426;2022-09-03T19:27:10;24.10;39.30
49731;DHT22;35622;52.008;5.426;2022-09-03T19:30:07;24.00;39.40
49731;DHT22;35622;52.008;5.426;2022-09-03T19:42:10;23.90;39.40
49731;DHT22;35622;52.008;5.426;2022-09-03T19:45:25;23.80;39.60
49731;DHT22;35622;52.008;5.426;2022-09-03T19:49:29;23.60;39.70
49731;DHT22;35622;52.008;5.426;2022-09-03T19:51:57;23.60;39.80
49731;DHT22;35622;52.008;5.426;2022-09-03T19:54:45;23.50;39.90
49731;DHT22;35622;52.008;5.426;2022-09-03T19:57:32;23.40;40.00
49731;DHT22;35622;52.008;5.426;2022-09-03T20:00:16;23.40;39.90
49731;DHT22;35622;52.008;5.426;2022-09-03T20:03:01;23.40;40.10
49731;DHT22;35622;52.008;5.426;2022-09-03T20:05:45;23.30;40.20
49731;DHT22;35622;52.008;5.426;2022-09-03T20:08:30;23.20;40.10
49731;DHT22;35622;52.008;5.426;2022-09-03T20:11:20;23.20;40.40
49731;DHT22;35622;52.008;5.426;2022-09-03T20:13:47;23.10;40.40
49731;DHT22;35622;52.008;5.426;2022-09-03T20:22:30;23.00;40.80
49731;DHT22;35622;52.008;5.426;2022-09-03T20:25:27;23.00;41.10
49731;DHT22;35622;52.008;5.426;2022-09-03T20:30:41;22.80;41.70
49731;DHT22;35622;52.008;5.426;2022-09-03T20:33:21;22.80;41.70
49731;DHT22;35622;52.008;5.426;2022-09-03T20:38:43;22.70;42.00
49731;DHT22;35622;52.008;5.426;2022-09-03T20:57:39;22.30;42.60
49731;DHT22;35622;52.008;5.426;2022-09-03T21:00:14;22.30;42.70
49731;DHT22;35622;52.008;5.426;2022-09-03T21:08:54;22.10;43.00
49731;DHT22;35622;52.008;5.426;2022-09-03T21:11:36;22.10;43.10
49731;DHT22;35622;52.008;5.426;2022-09-03T21:14:30;22.10;43.00
49731;DHT22;35622;52.008;5.426;2022-09-03T21:17:21;22.00;43.00
49731;DHT22;35622;52.008;5.426;2022-09-03T21:20:04;22.00;43.20
49731;DHT22;35622;52.008;5.426;2022-09-03T21:31:00;21.80;43.60
49731;DHT22;35622;52.008;5.426;2022-09-03T21:33:37;21.80;43.80
49731;DHT22;35622;52.008;5.426;2022-09-03T21:36:11;21.80;44.10
49731;DHT22;35622;52.008;5.426;2022-09-03T21:38:38;21.70;43.90
49731;DHT22;35622;52.008;5.426;2022-09-03T21:41:17;21.60;44.10
49731;DHT22;35622;52.008;5.426;2022-09-03T21:44:04;21.60;44.30
49731;DHT22;35622;52.008;5.426;2022-09-03T21:46:39;21.50;44.40
49731;DHT22;35622;52.008;5.426;2022-09-03T21:49:11;21.50;44.50
49731;DHT22;35622;52.008;5.426;2022-09-03T21:54:27;21.40;44.40
49731;DHT22;35622;52.008;5.426;2022-09-03T21:57:12;21.40;44.50
49731;DHT22;35622;52.008;5.426;2022-09-03T21:59:57;21.30;44.60
49731;DHT22;35622;52.008;5.426;2022-09-03T22:02:28;21.40;44.60
49731;DHT22;35622;52.008;5.426;2022-09-03T22:04:55;21.20;44.90
49731;DHT22;35622;52.008;5.426;2022-09-03T22:13:13;21.00;45.00
49731;DHT22;35622;52.008;5.426;2022-09-03T22:15:42;21.10;45.20
49731;DHT22;35622;52.008;5.426;2022-09-03T22:18:23;21.10;45.10
49731;DHT22;35622;52.008;5.426;2022-09-03T22:21:07;21.00;45.30
49731;DHT22;35622;52.008;5.426;2022-09-03T22:27:08;20.80;45.90